createdAt,value
2018-09-06T00:00:49.666Z,16.43
2018-09-06T00:03:19.483Z,16.36
2018-09-06T00:05:49.395Z,16.33
2018-09-06T00:08:19.289Z,16.31
2018-09-06T00:10:50.670Z,16.25
2018-09-06T00:13:20.406Z,16.23
2018-09-06T00:15:50.137Z,16.19
2018-09-06T00:18:24.267Z,16.18
2018-09-06T00:20:54.123Z,16.21
2018-09-06T00:23:23.912Z,16.20
2018-09-06T00:25:53.814Z,16.19
2018-09-06T00:28:23.594Z,16.18
2018-09-06T00:30:53.313Z,16.20
2018-09-06T00:33:22.980Z,16.18
2018-09-06T00:35:57.699Z,16.14
2018-09-06T00:38:27.547Z,16.15
2018-09-06T00:40:57.464Z,16.15
2018-09-06T00:43:27.196Z,16.15
2018-09-06T00:45:58.350Z,16.13
2018-09-06T00:48:29.578Z,16.12
2018-09-06T00:50:59.715Z,16.06
2018-09-06T00:53:29.495Z,16.08
2018-09-06T00:55:59.267Z,16.03
2018-09-06T00:58:29.035Z,16.00
2018-09-06T01:01:00.846Z,15.97
2018-09-06T01:03:30.640Z,15.96
2018-09-06T01:06:00.499Z,15.93
2018-09-06T01:08:30.311Z,15.95
2018-09-06T01:11:00.432Z,15.90
2018-09-06T01:13:30.667Z,15.86
2018-09-06T01:16:00.956Z,15.82
2018-09-06T01:18:31.833Z,15.78
2018-09-06T01:21:01.621Z,15.76
2018-09-06T01:23:31.392Z,15.71
2018-09-06T01:26:01.279Z,15.67
2018-09-06T01:28:31.044Z,15.57
2018-09-06T01:31:00.796Z,15.45
2018-09-06T01:33:30.692Z,15.39
2018-09-06T01:36:05.586Z,15.29
2018-09-06T01:38:35.431Z,15.37
2018-09-06T01:41:05.140Z,15.38
2018-09-06T01:44:03.481Z,15.40
2018-09-06T01:46:33.323Z,15.34
2018-09-06T01:49:03.351Z,15.29
2018-09-06T01:51:33.434Z,15.26
2018-09-06T01:54:03.915Z,15.31
2018-09-06T01:56:33.806Z,15.35
2018-09-06T01:59:03.823Z,15.38
2018-09-06T02:01:33.278Z,15.38
2018-09-06T02:04:02.772Z,15.35
2018-09-06T02:06:32.119Z,15.28
2018-09-06T02:09:02.653Z,15.21
2018-09-06T02:11:32.070Z,15.19
2018-09-06T02:14:01.777Z,15.16
2018-09-06T02:16:31.511Z,15.16
2018-09-06T02:19:01.312Z,15.19
2018-09-06T02:21:31.134Z,15.18
2018-09-06T02:24:01.366Z,15.16
2018-09-06T02:26:31.258Z,15.13
2018-09-06T02:29:00.997Z,15.10
2018-09-06T02:31:30.672Z,15.05
2018-09-06T02:34:00.400Z,15.03
2018-09-06T02:36:30.108Z,15.01
2018-09-06T02:39:05.829Z,14.99
2018-09-06T02:41:35.498Z,14.97
2018-09-06T02:44:05.430Z,14.98
2018-09-06T02:46:35.159Z,14.94
2018-09-06T02:49:27.654Z,14.88
2018-09-06T02:51:57.360Z,14.82
2018-09-06T02:54:27.063Z,14.75
2018-09-06T02:56:56.735Z,14.64
2018-09-06T02:59:26.694Z,14.60
2018-09-06T03:02:02.512Z,14.67
2018-09-06T03:04:36.232Z,14.73
2018-09-06T03:07:06.590Z,14.63
2018-09-06T03:09:36.837Z,14.56
2018-09-06T03:12:08.601Z,14.57
2018-09-06T03:14:39.206Z,14.62
2018-09-06T03:17:09.765Z,14.65
2018-09-06T03:19:39.957Z,14.67
2018-09-06T03:22:10.267Z,14.65
2018-09-06T03:24:40.351Z,14.61
2018-09-06T03:27:10.869Z,14.51
2018-09-06T03:29:40.893Z,14.43
2018-09-06T03:32:11.678Z,14.43
2018-09-06T03:34:42.370Z,14.39
2018-09-06T03:37:12.769Z,14.33
2018-09-06T03:39:42.966Z,14.29
2018-09-06T03:42:13.257Z,14.27
2018-09-06T03:45:07.893Z,14.36
2018-09-06T03:47:37.897Z,14.37
2018-09-06T03:50:08.454Z,14.31
2018-09-06T03:52:38.937Z,14.29
2018-09-06T03:55:09.458Z,14.24
2018-09-06T03:57:40.321Z,14.22
2018-09-06T04:00:10.894Z,14.24
2018-09-06T04:02:41.071Z,14.24
2018-09-06T04:05:28.000Z,14.23
2018-09-06T04:07:58.928Z,14.15
2018-09-06T04:10:29.262Z,13.99
2018-09-06T04:12:59.525Z,13.92
2018-09-06T04:15:29.929Z,13.91
2018-09-06T04:18:00.256Z,14.03
2018-09-06T04:20:30.617Z,14.02
2018-09-06T04:23:00.626Z,14.00
2018-09-06T04:25:31.114Z,13.96
2018-09-06T04:28:01.145Z,13.95
2018-09-06T04:30:31.284Z,14.06
2018-09-06T04:33:01.603Z,14.05
2018-09-06T04:35:31.798Z,14.04
2018-09-06T04:38:02.026Z,14.06
2018-09-06T04:40:32.693Z,14.07
2018-09-06T04:43:03.166Z,14.04
2018-09-06T04:45:33.211Z,14.04
2018-09-06T04:48:03.242Z,14.05
2018-09-06T04:50:33.149Z,14.04
2018-09-06T04:53:03.329Z,13.99
2018-09-06T04:55:33.422Z,13.97
2018-09-06T04:58:03.734Z,13.97
2018-09-06T05:00:34.172Z,13.93
2018-09-06T05:03:05.401Z,13.96
2018-09-06T05:05:35.858Z,14.05
2018-09-06T05:08:06.151Z,14.05
2018-09-06T05:10:36.379Z,14.04
2018-09-06T05:13:06.562Z,14.03
2018-09-06T05:15:36.902Z,14.01
2018-09-06T05:18:07.830Z,13.94
2018-09-06T05:20:38.203Z,13.93
2018-09-06T05:23:08.538Z,14.02
2018-09-06T05:25:38.885Z,14.09
2018-09-06T05:28:08.977Z,14.17
2018-09-06T05:30:39.440Z,14.23
2018-09-06T05:33:09.103Z,14.31
2018-09-06T05:35:39.911Z,14.39
2018-09-06T05:38:09.982Z,14.49
2018-09-06T05:40:40.350Z,14.60
2018-09-06T05:43:10.568Z,14.75
2018-09-06T05:45:40.498Z,14.90
2018-09-06T05:48:10.482Z,15.00
2018-09-06T05:50:40.510Z,15.16
2018-09-06T05:53:10.598Z,15.19
2018-09-06T05:55:41.019Z,15.27
2018-09-06T05:58:11.479Z,15.46
2018-09-06T06:00:45.057Z,15.61
2018-09-06T06:03:19.620Z,15.75
2018-09-06T06:05:49.599Z,15.87
2018-09-06T06:08:36.475Z,16.14
2018-09-06T06:11:06.814Z,16.31
2018-09-06T06:13:37.066Z,16.54
2018-09-06T06:16:07.225Z,16.77
2018-09-06T06:18:37.642Z,16.96
2018-09-06T06:21:08.143Z,16.99
2018-09-06T06:23:38.631Z,17.16
2018-09-06T06:26:10.655Z,17.54
2018-09-06T06:28:41.612Z,18.09
2018-09-06T06:31:11.707Z,19.08
2018-09-06T06:33:41.855Z,19.70
2018-09-06T06:36:11.750Z,20.74
2018-09-06T06:38:41.522Z,21.78
2018-09-06T06:41:11.218Z,22.47
2018-09-06T06:43:40.875Z,22.97
2018-09-06T06:46:10.674Z,23.27
2018-09-06T06:48:40.470Z,23.50
2018-09-06T06:51:10.118Z,24.00
2018-09-06T06:53:39.895Z,24.35
2018-09-06T06:56:26.014Z,25.24
2018-09-06T06:58:55.804Z,24.68
2018-09-06T07:01:25.499Z,24.38
2018-09-06T07:03:55.132Z,23.67
2018-09-06T07:06:24.862Z,23.76
2018-09-06T07:08:56.674Z,25.20
2018-09-06T07:11:26.391Z,25.90
2018-09-06T07:13:56.119Z,26.30
2018-09-06T07:16:25.843Z,26.21
2018-09-06T07:18:55.514Z,26.10
2018-09-06T07:21:25.323Z,26.40
2018-09-06T07:23:55.015Z,26.64
2018-09-06T07:26:24.679Z,26.33
2018-09-06T07:28:54.438Z,25.41
2018-09-06T07:31:24.114Z,26.98
2018-09-06T07:33:53.910Z,28.47
2018-09-06T07:36:23.692Z,28.31
2018-09-06T07:38:53.521Z,28.77
2018-09-06T07:41:23.339Z,29.48
2018-09-06T07:43:53.058Z,29.36
2018-09-06T07:46:22.796Z,29.48
2018-09-06T07:48:53.681Z,28.68
2018-09-06T07:51:23.336Z,28.71
2018-09-06T07:53:53.002Z,29.13
2018-09-06T07:56:22.968Z,28.84
2018-09-06T07:58:53.118Z,26.88
2018-09-06T08:01:24.238Z,28.30
2018-09-06T08:03:53.932Z,29.27
2018-09-06T08:06:24.014Z,28.75
2018-09-06T08:08:53.550Z,29.08
2018-09-06T08:11:23.180Z,29.03
2018-09-06T08:13:52.851Z,29.70
2018-09-06T08:16:22.569Z,30.96
2018-09-06T08:18:52.273Z,30.45
2018-09-06T08:21:21.989Z,28.43
2018-09-06T08:23:51.703Z,28.89
2018-09-06T08:26:21.356Z,30.11
2018-09-06T08:28:51.210Z,29.54
2018-09-06T08:31:20.911Z,29.46
2018-09-06T08:33:50.814Z,30.40
2018-09-06T08:36:20.703Z,30.86
2018-09-06T08:38:50.484Z,31.22
2018-09-06T08:41:20.169Z,29.06
2018-09-06T08:43:49.821Z,28.65
2018-09-06T08:46:19.518Z,27.93
2018-09-06T08:48:49.177Z,27.16
2018-09-06T08:51:19.083Z,28.17
2018-09-06T08:53:48.766Z,26.79
2018-09-06T08:56:18.435Z,25.94
2018-09-06T08:58:48.054Z,28.21
2018-09-06T09:01:22.964Z,27.80
2018-09-06T09:03:52.691Z,29.65
2018-09-06T09:06:22.530Z,30.16
2018-09-06T09:08:52.247Z,31.08
2018-09-06T09:11:21.923Z,30.54
2018-09-06T09:13:51.563Z,31.77
2018-09-06T09:16:21.195Z,33.18
2018-09-06T09:18:50.890Z,31.17
2018-09-06T09:21:20.545Z,31.42
2018-09-06T09:23:50.242Z,30.83
2018-09-06T09:26:19.995Z,30.93
2018-09-06T09:28:49.616Z,28.75
2018-09-06T09:31:19.363Z,29.64
2018-09-06T09:33:49.063Z,28.18
2018-09-06T09:36:18.782Z,29.18
2018-09-06T09:38:48.442Z,29.44
2018-09-06T09:41:18.091Z,29.18
2018-09-06T09:43:47.758Z,29.99
2018-09-06T09:48:46.275Z,30.11
2018-09-06T09:51:16.091Z,30.35
2018-09-06T09:53:45.947Z,28.42
2018-09-06T09:56:15.673Z,30.24
2018-09-06T09:58:45.398Z,30.87
2018-09-06T10:01:15.470Z,30.54
2018-09-06T10:06:24.135Z,32.57
2018-09-06T10:08:58.872Z,29.96
2018-09-06T10:11:28.582Z,29.46
2018-09-06T10:13:58.260Z,28.85
2018-09-06T10:16:28.182Z,31.42
2018-09-06T10:18:57.970Z,32.12
2018-09-06T10:21:27.868Z,31.37
2018-09-06T10:23:57.715Z,31.92
2018-09-06T10:26:27.528Z,32.68
2018-09-06T10:28:58.146Z,30.30
2018-09-06T10:31:28.066Z,31.34
2018-09-06T10:33:57.649Z,32.72
2018-09-06T10:36:27.381Z,33.54
2018-09-06T10:38:57.343Z,34.73
2018-09-06T10:41:27.131Z,32.22
2018-09-06T10:43:57.078Z,31.54
2018-09-06T10:46:26.863Z,31.10
2018-09-06T10:48:56.636Z,32.64
2018-09-06T10:51:26.407Z,33.59
2018-09-06T10:56:38.015Z,32.61
2018-09-06T10:59:08.802Z,30.31
2018-09-06T11:01:38.180Z,31.15
2018-09-06T11:04:07.866Z,32.89
2018-09-06T11:06:37.217Z,33.21
2018-09-06T11:09:07.597Z,33.28
2018-09-06T11:11:38.649Z,33.51
2018-09-06T11:14:08.112Z,34.03
2018-09-06T11:16:37.521Z,33.17
2018-09-06T11:19:06.993Z,32.26
2018-09-06T11:21:37.892Z,31.87
2018-09-06T11:24:07.086Z,31.94
2018-09-06T11:26:36.482Z,33.54
2018-09-06T11:29:05.859Z,34.14
2018-09-06T11:31:35.453Z,30.89
2018-09-06T11:34:05.063Z,31.96
2018-09-06T11:36:34.446Z,30.22
2018-09-06T11:39:05.129Z,30.07
2018-09-06T11:41:34.553Z,30.94
2018-09-06T11:44:04.407Z,31.56
2018-09-06T11:46:39.374Z,31.84
2018-09-06T11:49:09.049Z,31.42
2018-09-06T11:51:38.446Z,31.81
2018-09-06T11:54:08.169Z,32.22
2018-09-06T11:56:38.414Z,32.42
2018-09-06T11:59:09.854Z,33.02
2018-09-06T12:01:39.825Z,32.95
2018-09-06T12:04:09.700Z,31.60
2018-09-06T12:06:39.471Z,31.05
2018-09-06T12:09:09.125Z,31.63
2018-09-06T12:11:38.855Z,32.11
2018-09-06T12:14:08.549Z,31.85
2018-09-06T12:16:38.286Z,31.82
2018-09-06T12:19:07.921Z,31.85
2018-09-06T12:21:37.710Z,32.63
2018-09-06T12:24:07.455Z,32.62
2018-09-06T12:26:37.322Z,32.78
2018-09-06T12:29:07.196Z,35.31
2018-09-06T12:31:36.946Z,35.10
2018-09-06T12:34:06.837Z,35.82
2018-09-06T12:36:36.478Z,36.28
2018-09-06T12:39:08.350Z,36.15
2018-09-06T12:41:38.443Z,34.80
2018-09-06T12:44:08.577Z,34.70
2018-09-06T12:46:38.206Z,33.94
2018-09-06T12:49:07.941Z,31.57
2018-09-06T12:51:37.746Z,30.80
2018-09-06T12:54:07.455Z,29.54
2018-09-06T12:56:37.157Z,29.19
2018-09-06T12:59:06.962Z,29.68
2018-09-06T13:01:36.690Z,29.33
2018-09-06T13:04:06.374Z,29.61
2018-09-06T13:06:36.119Z,29.47
2018-09-06T13:09:06.875Z,29.27
2018-09-06T13:11:37.079Z,28.37
2018-09-06T13:14:06.723Z,28.02
2018-09-06T13:16:36.435Z,28.35
2018-09-06T13:19:25.102Z,28.48
2018-09-06T13:21:54.797Z,27.49
2018-09-06T13:24:24.599Z,26.62
2018-09-06T13:26:54.466Z,26.53
2018-09-06T13:29:24.048Z,26.50
2018-09-06T13:31:55.116Z,27.64
2018-09-06T13:34:24.722Z,27.92
2018-09-06T13:36:54.642Z,27.74
2018-09-06T13:39:24.443Z,27.03
2018-09-06T13:41:54.527Z,26.34
2018-09-06T13:44:24.173Z,26.26
2018-09-06T13:46:54.059Z,26.19
2018-09-06T13:49:23.827Z,26.01
2018-09-06T13:51:53.436Z,26.60
2018-09-06T13:54:23.103Z,26.40
2018-09-06T13:57:00.038Z,26.22
2018-09-06T13:59:29.729Z,26.07
2018-09-06T14:01:59.734Z,26.17
2018-09-06T14:04:29.440Z,26.44
2018-09-06T14:06:59.194Z,26.70
2018-09-06T14:09:28.898Z,26.80
2018-09-06T14:11:58.663Z,27.18
2018-09-06T14:14:28.307Z,27.98
2018-09-06T14:16:59.289Z,27.72
2018-09-06T14:19:28.967Z,27.71
2018-09-06T14:21:58.971Z,28.18
2018-09-06T14:24:28.898Z,28.06
2018-09-06T14:26:59.106Z,27.48
2018-09-06T14:29:28.806Z,28.06
2018-09-06T14:31:58.563Z,28.06
2018-09-06T14:34:28.297Z,28.26
2018-09-06T14:36:58.151Z,28.30
2018-09-06T14:39:28.148Z,27.99
2018-09-06T14:41:57.796Z,27.57
2018-09-06T14:44:45.983Z,27.93
2018-09-06T14:47:15.782Z,27.46
2018-09-06T14:49:45.501Z,27.30
2018-09-06T14:52:15.446Z,27.38
2018-09-06T14:54:45.187Z,27.10
2018-09-06T14:57:14.943Z,27.41
2018-09-06T14:59:44.634Z,27.47
2018-09-06T15:02:14.254Z,27.91
2018-09-06T15:04:43.919Z,28.61
2018-09-06T15:07:13.715Z,28.36
2018-09-06T15:09:43.450Z,28.51
2018-09-06T15:12:13.487Z,28.92
2018-09-06T15:14:43.479Z,29.14
2018-09-06T15:17:13.534Z,29.45
2018-09-06T15:19:43.539Z,29.16
2018-09-06T15:22:13.929Z,28.51
2018-09-06T15:24:43.920Z,27.80
2018-09-06T15:27:28.252Z,27.59
2018-09-06T15:29:58.411Z,26.69
2018-09-06T15:32:28.435Z,26.52
2018-09-06T15:34:58.582Z,26.32
2018-09-06T15:37:28.892Z,26.16
2018-09-06T15:39:59.411Z,26.03
2018-09-06T15:42:34.279Z,25.94
2018-09-06T15:45:04.936Z,25.87
2018-09-06T15:47:35.052Z,25.63
2018-09-06T15:50:05.547Z,25.59
2018-09-06T15:52:35.641Z,25.20
2018-09-06T15:55:06.406Z,25.19
2018-09-06T15:57:37.006Z,25.20
2018-09-06T16:00:13.134Z,25.33
2018-09-06T16:02:43.584Z,25.17
2018-09-06T16:05:13.750Z,25.10
2018-09-06T16:07:44.067Z,25.00
2018-09-06T16:10:14.164Z,24.85
2018-09-06T16:12:44.513Z,24.79
2018-09-06T16:15:26.063Z,24.64
2018-09-06T16:17:56.727Z,24.43
2018-09-06T16:20:26.718Z,24.51
2018-09-06T16:22:56.802Z,24.46
2018-09-06T16:25:27.475Z,24.43
2018-09-06T16:27:57.672Z,24.52
2018-09-06T16:30:28.033Z,24.49
2018-09-06T16:33:11.563Z,24.46
2018-09-06T16:35:41.750Z,24.32
2018-09-06T16:38:11.845Z,24.11
2018-09-06T16:40:42.259Z,24.04
2018-09-06T16:43:12.547Z,23.96
2018-09-06T16:45:43.117Z,23.93
2018-09-06T16:48:13.698Z,23.94
2018-09-06T16:50:43.572Z,23.87
2018-09-06T16:53:13.569Z,23.83
2018-09-06T16:55:43.682Z,23.79
2018-09-06T16:58:13.776Z,23.66
2018-09-06T17:00:43.797Z,23.68
2018-09-06T17:03:13.996Z,23.65
2018-09-06T17:05:44.418Z,23.63
2018-09-06T17:08:15.395Z,23.56
2018-09-06T17:10:45.881Z,23.58
2018-09-06T17:16:01.846Z,23.26
2018-09-06T17:18:32.250Z,23.00
2018-09-06T17:21:01.939Z,23.08
2018-09-06T17:23:31.599Z,23.10
2018-09-06T17:26:01.507Z,23.02
2018-09-06T17:28:31.281Z,23.01
2018-09-06T17:31:01.012Z,22.98
2018-09-06T17:33:30.646Z,22.93
2018-09-06T17:38:38.459Z,22.92
2018-09-06T17:41:07.802Z,22.84
2018-09-06T17:43:37.188Z,22.78
2018-09-06T17:46:06.781Z,22.70
2018-09-06T17:48:36.139Z,22.64
2018-09-06T17:51:05.477Z,22.56
2018-09-06T17:53:34.896Z,22.66
2018-09-06T17:56:04.235Z,22.62
2018-09-06T17:58:33.562Z,22.62
2018-09-06T18:01:37.322Z,22.67
2018-09-06T18:04:07.280Z,22.61
2018-09-06T18:06:36.669Z,22.53
2018-09-06T18:09:13.034Z,22.56
2018-09-06T18:11:43.181Z,22.52
2018-09-06T18:14:12.813Z,22.52
2018-09-06T18:16:42.191Z,22.44
2018-09-06T18:19:11.537Z,22.44
2018-09-06T18:21:40.849Z,22.40
2018-09-06T18:27:23.930Z,22.33
2018-09-06T18:29:53.586Z,22.44
2018-09-06T18:32:23.252Z,22.38
2018-09-06T18:34:52.998Z,22.31
2018-09-06T18:37:22.575Z,22.39
2018-09-06T18:39:57.874Z,22.36
2018-09-06T18:42:27.357Z,22.32
2018-09-06T18:44:56.669Z,22.33
2018-09-06T18:47:26.165Z,22.20
2018-09-06T18:49:55.825Z,22.30
2018-09-06T18:52:25.455Z,22.21
2018-09-06T18:54:54.897Z,22.18
2018-09-06T18:57:24.305Z,22.23
2018-09-06T18:59:53.624Z,22.14
2018-09-06T19:02:23.305Z,22.16
2018-09-06T19:04:52.790Z,22.20
2018-09-06T19:07:24.381Z,22.21
2018-09-06T19:09:54.160Z,22.18
2018-09-06T19:12:23.955Z,22.23
2018-09-06T19:14:53.642Z,22.12
2018-09-06T19:17:23.594Z,22.06
2018-09-06T19:19:55.206Z,22.07
2018-09-06T19:22:24.946Z,22.04
2018-09-06T19:24:54.641Z,22.06
2018-09-06T19:27:25.110Z,21.96
2018-09-06T19:29:54.875Z,22.02
2018-09-06T19:32:24.762Z,21.90
2018-09-06T19:34:54.475Z,21.94
2018-09-06T19:37:24.234Z,21.87
2018-09-06T19:39:54.050Z,21.77
2018-09-06T19:42:28.137Z,21.66
2018-09-06T19:44:57.911Z,21.78
2018-09-06T19:47:28.330Z,21.73
2018-09-06T19:49:58.133Z,21.68
2018-09-06T19:52:27.879Z,21.58
2018-09-06T19:54:57.837Z,21.58
2018-09-06T19:57:27.675Z,21.59
2018-09-06T19:59:57.457Z,21.52
2018-09-06T20:02:27.273Z,21.56
2018-09-06T20:04:57.656Z,21.52
2018-09-06T20:07:27.463Z,21.49
2018-09-06T20:09:57.263Z,21.40
2018-09-06T20:12:26.926Z,21.39
2018-09-06T20:14:56.589Z,21.34
2018-09-06T20:17:29.918Z,21.32
2018-09-06T20:19:59.691Z,21.33
2018-09-06T20:22:29.441Z,21.20
2018-09-06T20:24:59.174Z,21.18
2018-09-06T20:27:28.867Z,21.16
2018-09-06T20:29:58.552Z,21.24
2018-09-06T20:32:28.201Z,21.26
2018-09-06T20:34:57.867Z,21.23
2018-09-06T20:37:27.555Z,21.17
2018-09-06T20:39:57.199Z,21.10
2018-09-06T20:42:26.941Z,21.08
2018-09-06T20:44:56.715Z,20.95
2018-09-06T20:47:26.362Z,20.98
2018-09-06T20:49:56.116Z,21.08
2018-09-06T20:52:25.783Z,21.02
2018-09-06T20:54:55.539Z,21.07
2018-09-06T20:57:25.266Z,21.10
2018-09-06T20:59:55.268Z,21.15
2018-09-06T21:02:25.847Z,20.98
2018-09-06T21:04:55.543Z,20.96
2018-09-06T21:07:25.270Z,20.83
2018-09-06T21:09:54.946Z,20.83
2018-09-06T21:12:24.738Z,20.69
2018-09-06T21:14:54.422Z,20.82
2018-09-06T21:17:23.914Z,20.84
2018-09-06T21:19:53.341Z,20.75
2018-09-06T21:22:22.690Z,20.72
2018-09-06T21:24:52.080Z,20.61
2018-09-06T21:27:21.422Z,20.54
2018-09-06T21:29:50.934Z,20.62
2018-09-06T21:32:20.293Z,20.59
2018-09-06T21:34:49.645Z,20.60
2018-09-06T21:37:18.973Z,20.51
2018-09-06T21:39:48.507Z,20.53
2018-09-06T21:42:17.900Z,20.54
2018-09-06T21:44:47.224Z,20.44
2018-09-06T21:47:16.557Z,20.44
2018-09-06T21:49:45.894Z,20.42
2018-09-06T21:52:15.571Z,20.41
2018-09-06T21:54:45.234Z,20.43
2018-09-06T21:57:15.063Z,20.45
2018-09-06T21:59:44.750Z,20.50
2018-09-06T22:02:19.535Z,20.51
2018-09-06T22:04:49.188Z,20.30
2018-09-06T22:07:18.878Z,20.32
2018-09-06T22:09:48.422Z,20.17
2018-09-06T22:12:19.092Z,20.24
2018-09-06T22:14:50.653Z,20.24
2018-09-06T22:17:20.433Z,20.13
2018-09-06T22:19:50.230Z,20.12
2018-09-06T22:22:19.995Z,20.14
2018-09-06T22:24:49.724Z,20.03
2018-09-06T22:27:19.403Z,20.02
2018-09-06T22:29:49.098Z,19.96
2018-09-06T22:32:19.102Z,19.80
2018-09-06T22:34:48.869Z,19.87
2018-09-06T22:37:18.612Z,19.82
2018-09-06T22:39:48.283Z,19.70
2018-09-06T22:42:17.991Z,19.68
2018-09-06T22:44:47.719Z,19.58
2018-09-06T22:47:17.502Z,19.50
2018-09-06T22:49:47.211Z,19.54
2018-09-06T22:52:17.225Z,19.62
2018-09-06T22:54:46.911Z,19.56
2018-09-06T22:57:16.678Z,19.54
2018-09-06T22:59:46.399Z,19.53
2018-09-06T23:02:16.066Z,19.49
2018-09-06T23:04:45.865Z,19.55
2018-09-06T23:07:15.571Z,19.52
2018-09-06T23:09:45.282Z,19.46
2018-09-06T23:12:14.975Z,19.46
2018-09-06T23:14:44.755Z,19.44
2018-09-06T23:17:20.150Z,19.38
2018-09-06T23:19:49.920Z,19.41
2018-09-06T23:22:19.695Z,19.34
2018-09-06T23:24:49.562Z,19.33
2018-09-06T23:27:19.306Z,19.36
2018-09-06T23:29:49.051Z,19.35
2018-09-06T23:32:18.776Z,19.29
2018-09-06T23:34:48.534Z,19.30
2018-09-06T23:37:18.211Z,19.26
2018-09-06T23:39:47.960Z,19.20
2018-09-06T23:42:24.830Z,19.18
2018-09-06T23:44:56.402Z,19.17
2018-09-06T23:47:26.132Z,19.10
2018-09-06T23:49:55.847Z,19.16
2018-09-06T23:52:25.609Z,19.15
2018-09-06T23:54:55.400Z,19.10
2018-09-06T23:57:25.042Z,19.02
2018-09-06T23:59:54.874Z,19.01
